Flight Track Log - Related Links

Times and Time Zones

All times are in EDT time to prevent confusion due to time zone crossing. See the AWE3992 flight status page for this flight to view local times or setup timezone preferences in your user account.

Time Position Orientation Groundspeed Altitude Reporting Facility
EDT Latitude Longitude Course Direction KTS MPH feet Rate Location/Type
07:45AM 38.8667 -77.0500 74° East 158 182 1,100  Level Potomac TRACON
07:46AM 38.9000 -77.0833 322° Northwest 201 231 3,300 1,944 Climbing Potomac TRACON
07:47AM 38.9157 -76.7676 38° Northeast  Level FlightAware Approximate
07:47AM 38.9500 -77.1333 322° Northwest 259 298 4,600  Level Potomac TRACON
07:48AM 38.9370 -76.6726 67° East  Level FlightAware Approximate
07:48AM 39.0167 -77.1333 360° North 274 315 6,600  Level Potomac TRACON
07:49AM 38.9676 -76.5796 72° East  Level FlightAware Approximate
07:49AM 39.0167 -77.0333 90° East 261 300 9,000  Level Potomac TRACON
07:50AM 38.9908 -76.4830 74° East  Level FlightAware Approximate
07:50AM 39.0333 -76.9333 78° East 270 311 10,900  Level Potomac TRACON
07:50AM 39.0333 -76.8500 90° East 276 318 11,000 56 Climbing Potomac TRACON
07:51AM 39.0333 -76.7667 90° East 280 322 11,000  Level Potomac TRACON
07:52AM 39.0333 -76.6667 90° East 287 330 11,000  Level Potomac TRACON
07:53AM 39.0833 -76.5667 57° Northeast 289 333 11,000 -48 Level Potomac TRACON
07:54AM 39.1333 -76.4833 52° Northeast 287 330 10,900 -400 Descending Potomac TRACON
07:55AM 39.1833 -76.4000 52° Northeast 271 312 10,200 -579 Descending Potomac TRACON
07:56AM 39.2167 -76.3333 57° Northeast 264 304 9,800 -474 Descending Potomac TRACON
07:57AM 39.2667 -76.2667 46° Northeast 270 311 9,300 -421 Descending Potomac TRACON
07:58AM 39.3000 -76.2000 57° Northeast 274 315 9,000 -158 Descending Potomac TRACON
07:59AM 39.3500 -76.1333 46° Northeast 271 312 9,000  Level Potomac TRACON
08:01AM 39.4500 -75.9667 52° Northeast 267 307 9,000 -227 Level Philadelphia TRACON
08:02AM 39.4833 -75.8833 63° Northeast 267 307 8,300 -850 Descending Philadelphia TRACON
08:03AM 39.5000 -75.7833 78° East 266 306 7,300 -1,000 Descending Philadelphia TRACON
08:04AM 39.5167 -75.7000 75° East 257 296 6,300 -1,150 Descending Philadelphia TRACON
08:05AM 39.5333 -75.6000 78° East 254 292 5,000 -650 Descending Philadelphia TRACON
08:06AM 39.5500 -75.5167 75° East 247 284 5,000 -700 Level Philadelphia TRACON
08:07AM 39.5667 -75.4333 75° East 241 277 3,600 -952 Descending Philadelphia TRACON
08:08AM 39.5833 -75.3500 75° East 233 268 3,000 -286 Descending Philadelphia TRACON
08:09AM 39.6333 -75.2833 46° Northeast 237 273 3,000  Level Philadelphia TRACON
08:10AM 39.6833 -75.2333 38° Northeast 236 272 3,000 -526 Level Philadelphia TRACON
08:11AM 39.7167 -75.1833 49° Northeast 216 249 2,000 -526 Descending Philadelphia TRACON
08:12AM 39.7667 -75.1833 360° North 196 226 2,000 -500 Level Philadelphia TRACON
08:13AM 39.8167 -75.2000 346° North 136 157 1,000 -762 Descending Philadelphia TRACON
08:14AM 39.8500 -75.2167 339° North 143 165 400 -600 Descending Philadelphia TRACON

Login

Don't have an account? Register now (free) for customized features, flight alerts, and more!